sensor_id;sensor_type;location;lat;lon;timestamp;P1;durP1;ratioP1;P2;durP2;ratioP2
8857;SDS011;4465;50.904;4.696;2022-11-24T00:00:00;21.33;;;2.72;;
8857;SDS011;4465;50.904;4.696;2022-11-24T00:02:27;18.77;;;3.20;;
8857;SDS011;4465;50.904;4.696;2022-11-24T00:04:53;15.10;;;3.10;;
8857;SDS011;4465;50.904;4.696;2022-11-24T00:07:19;17.77;;;2.85;;
8857;SDS011;4465;50.904;4.696;2022-11-24T00:09:48;17.42;;;3.15;;
8857;SDS011;4465;50.904;4.696;2022-11-24T00:12:13;20.80;;;3.40;;
8857;SDS011;4465;50.904;4.696;2022-11-24T00:14:39;19.83;;;3.30;;
8857;SDS011;4465;50.904;4.696;2022-11-24T00:17:05;20.73;;;2.72;;
8857;SDS011;4465;50.904;4.696;2022-11-24T00:19:33;19.08;;;3.58;;
8857;SDS011;4465;50.904;4.696;2022-11-24T00:21:59;18.65;;;3.03;;
8857;SDS011;4465;50.904;4.696;2022-11-24T00:24:25;25.42;;;4.15;;
8857;SDS011;4465;50.904;4.696;2022-11-24T00:26:53;25.45;;;3.60;;
8857;SDS011;4465;50.904;4.696;2022-11-24T00:29:19;25.42;;;3.45;;
8857;SDS011;4465;50.904;4.696;2022-11-24T00:31:47;18.10;;;3.53;;
8857;SDS011;4465;50.904;4.696;2022-11-24T00:34:13;17.17;;;3.45;;
8857;SDS011;4465;50.904;4.696;2022-11-24T00:36:41;24.92;;;4.05;;
8857;SDS011;4465;50.904;4.696;2022-11-24T00:39:11;25.13;;;3.47;;
8857;SDS011;4465;50.904;4.696;2022-11-24T00:41:43;22.83;;;3.58;;
8857;SDS011;4465;50.904;4.696;2022-11-24T00:44:10;17.42;;;3.40;;
8857;SDS011;4465;50.904;4.696;2022-11-24T00:46:35;21.77;;;4.50;;
8857;SDS011;4465;50.904;4.696;2022-11-24T00:49:02;28.52;;;3.63;;
8857;SDS011;4465;50.904;4.696;2022-11-24T00:51:28;29.60;;;3.88;;
8857;SDS011;4465;50.904;4.696;2022-11-24T00:53:57;20.63;;;4.10;;
8857;SDS011;4465;50.904;4.696;2022-11-24T00:56:25;22.70;;;3.60;;
8857;SDS011;4465;50.904;4.696;2022-11-24T00:58:52;22.30;;;4.05;;
8857;SDS011;4465;50.904;4.696;2022-11-24T01:01:27;23.77;;;3.63;;
8857;SDS011;4465;50.904;4.696;2022-11-24T01:03:54;22.98;;;3.17;;
8857;SDS011;4465;50.904;4.696;2022-11-24T01:06:22;31.30;;;4.40;;
8857;SDS011;4465;50.904;4.696;2022-11-24T01:08:49;22.48;;;3.80;;
8857;SDS011;4465;50.904;4.696;2022-11-24T01:11:21;29.37;;;4.00;;
8857;SDS011;4465;50.904;4.696;2022-11-24T01:13:53;24.85;;;4.68;;
8857;SDS011;4465;50.904;4.696;2022-11-24T01:16:32;26.75;;;4.00;;
8857;SDS011;4465;50.904;4.696;2022-11-24T01:18:59;26.35;;;4.00;;
8857;SDS011;4465;50.904;4.696;2022-11-24T01:21:26;25.48;;;4.15;;
8857;SDS011;4465;50.904;4.696;2022-11-24T01:23:52;29.42;;;4.40;;
8857;SDS011;4465;50.904;4.696;2022-11-24T01:26:19;29.40;;;3.92;;
8857;SDS011;4465;50.904;4.696;2022-11-24T01:28:50;27.35;;;4.32;;
8857;SDS011;4465;50.904;4.696;2022-11-24T01:31:17;24.05;;;4.22;;
8857;SDS011;4465;50.904;4.696;2022-11-24T01:33:46;32.15;;;4.32;;
8857;SDS011;4465;50.904;4.696;2022-11-24T01:36:12;29.85;;;4.47;;
8857;SDS011;4465;50.904;4.696;2022-11-24T01:38:38;29.20;;;4.47;;
8857;SDS011;4465;50.904;4.696;2022-11-24T01:43:37;31.25;;;3.65;;
8857;SDS011;4465;50.904;4.696;2022-11-24T01:46:12;27.17;;;4.32;;
8857;SDS011;4465;50.904;4.696;2022-11-24T01:48:59;35.35;;;5.10;;
8857;SDS011;4465;50.904;4.696;2022-11-24T01:51:27;32.53;;;4.78;;
8857;SDS011;4465;50.904;4.696;2022-11-24T01:53:59;30.25;;;4.25;;
8857;SDS011;4465;50.904;4.696;2022-11-24T01:56:53;20.95;;;3.67;;
8857;SDS011;4465;50.904;4.696;2022-11-24T01:59:27;46.13;;;4.82;;
8857;SDS011;4465;50.904;4.696;2022-11-24T02:01:53;28.27;;;3.80;;
8857;SDS011;4465;50.904;4.696;2022-11-24T02:04:24;25.48;;;3.72;;
8857;SDS011;4465;50.904;4.696;2022-11-24T02:06:56;29.88;;;4.30;;
8857;SDS011;4465;50.904;4.696;2022-11-24T02:09:38;31.35;;;4.15;;
8857;SDS011;4465;50.904;4.696;2022-11-24T02:12:10;22.73;;;3.47;;
8857;SDS011;4465;50.904;4.696;2022-11-24T02:14:36;30.33;;;4.43;;
8857;SDS011;4465;50.904;4.696;2022-11-24T02:17:04;34.50;;;4.85;;
8857;SDS011;4465;50.904;4.696;2022-11-24T02:27:36;33.58;;;5.82;;
8857;SDS011;4465;50.904;4.696;2022-11-24T02:30:02;26.13;;;3.92;;
8857;SDS011;4465;50.904;4.696;2022-11-24T02:32:28;30.92;;;4.70;;
8857;SDS011;4465;50.904;4.696;2022-11-24T02:35:02;30.50;;;3.90;;
8857;SDS011;4465;50.904;4.696;2022-11-24T02:37:30;22.58;;;3.42;;
8857;SDS011;4465;50.904;4.696;2022-11-24T02:39:56;27.00;;;4.00;;
8857;SDS011;4465;50.904;4.696;2022-11-24T02:42:21;29.23;;;5.43;;
8857;SDS011;4465;50.904;4.696;2022-11-24T02:44:50;26.73;;;4.28;;
8857;SDS011;4465;50.904;4.696;2022-11-24T02:47:21;29.60;;;4.70;;
8857;SDS011;4465;50.904;4.696;2022-11-24T02:49:47;29.52;;;4.97;;
8857;SDS011;4465;50.904;4.696;2022-11-24T02:52:15;34.65;;;4.68;;
8857;SDS011;4465;50.904;4.696;2022-11-24T02:54:41;26.00;;;4.20;;
8857;SDS011;4465;50.904;4.696;2022-11-24T02:57:07;27.73;;;4.10;;
8857;SDS011;4465;50.904;4.696;2022-11-24T02:59:33;30.73;;;4.30;;
8857;SDS011;4465;50.904;4.696;2022-11-24T03:01:59;32.38;;;4.22;;
8857;SDS011;4465;50.904;4.696;2022-11-24T03:04:25;28.55;;;4.88;;
8857;SDS011;4465;50.904;4.696;2022-11-24T03:06:51;34.72;;;5.22;;
8857;SDS011;4465;50.904;4.696;2022-11-24T03:09:17;27.92;;;3.90;;
8857;SDS011;4465;50.904;4.696;2022-11-24T03:11:48;24.20;;;4.32;;
8857;SDS011;4465;50.904;4.696;2022-11-24T03:14:14;21.17;;;3.63;;
8857;SDS011;4465;50.904;4.696;2022-11-24T03:16:40;30.75;;;4.47;;
8857;SDS011;4465;50.904;4.696;2022-11-24T03:19:06;32.90;;;3.97;;
8857;SDS011;4465;50.904;4.696;2022-11-24T03:21:32;35.25;;;4.65;;
8857;SDS011;4465;50.904;4.696;2022-11-24T03:24:00;19.67;;;5.32;;
8857;SDS011;4465;50.904;4.696;2022-11-24T03:26:26;31.13;;;4.95;;
8857;SDS011;4465;50.904;4.696;2022-11-24T03:28:53;23.33;;;4.05;;
8857;SDS011;4465;50.904;4.696;2022-11-24T03:31:20;28.15;;;4.90;;
8857;SDS011;4465;50.904;4.696;2022-11-24T03:33:47;22.23;;;3.35;;
8857;SDS011;4465;50.904;4.696;2022-11-24T03:36:13;30.38;;;4.25;;
8857;SDS011;4465;50.904;4.696;2022-11-24T03:38:42;28.25;;;5.38;;
8857;SDS011;4465;50.904;4.696;2022-11-24T03:41:08;28.98;;;4.00;;
8857;SDS011;4465;50.904;4.696;2022-11-24T03:43:35;29.87;;;4.20;;
8857;SDS011;4465;50.904;4.696;2022-11-24T03:46:01;22.30;;;3.20;;
8857;SDS011;4465;50.904;4.696;2022-11-24T03:48:27;20.05;;;3.47;;
8857;SDS011;4465;50.904;4.696;2022-11-24T03:50:54;18.23;;;3.03;;
8857;SDS011;4465;50.904;4.696;2022-11-24T03:53:21;35.33;;;3.83;;
8857;SDS011;4465;50.904;4.696;2022-11-24T03:55:51;33.35;;;4.03;;
8857;SDS011;4465;50.904;4.696;2022-11-24T03:58:20;33.85;;;3.85;;
8857;SDS011;4465;50.904;4.696;2022-11-24T04:00:48;22.90;;;3.50;;
8857;SDS011;4465;50.904;4.696;2022-11-24T04:03:16;24.38;;;3.97;;
8857;SDS011;4465;50.904;4.696;2022-11-24T04:05:42;22.98;;;2.80;;
8857;SDS011;4465;50.904;4.696;2022-11-24T04:08:08;19.05;;;3.05;;
8857;SDS011;4465;50.904;4.696;2022-11-24T04:10:35;16.85;;;2.38;;
8857;SDS011;4465;50.904;4.696;2022-11-24T04:15:29;13.20;;;2.38;;
8857;SDS011;4465;50.904;4.696;2022-11-24T04:17:56;20.60;;;3.63;;
8857;SDS011;4465;50.904;4.696;2022-11-24T04:20:23;8.90;;;1.95;;
8857;SDS011;4465;50.904;4.696;2022-11-24T04:22:49;10.48;;;2.42;;
8857;SDS011;4465;50.904;4.696;2022-11-24T04:25:20;13.55;;;1.95;;
8857;SDS011;4465;50.904;4.696;2022-11-24T04:27:49;17.02;;;2.22;;
8857;SDS011;4465;50.904;4.696;2022-11-24T04:30:17;9.88;;;1.75;;
8857;SDS011;4465;50.904;4.696;2022-11-24T04:32:43;7.70;;;1.70;;
8857;SDS011;4465;50.904;4.696;2022-11-24T04:35:13;12.10;;;2.05;;
8857;SDS011;4465;50.904;4.696;2022-11-24T04:37:39;7.18;;;1.73;;
8857;SDS011;4465;50.904;4.696;2022-11-24T04:40:05;8.50;;;1.30;;
8857;SDS011;4465;50.904;4.696;2022-11-24T04:42:32;10.57;;;1.35;;
8857;SDS011;4465;50.904;4.696;2022-11-24T04:44:59;9.05;;;1.40;;
8857;SDS011;4465;50.904;4.696;2022-11-24T04:47:25;7.40;;;1.20;;
8857;SDS011;4465;50.904;4.696;2022-11-24T04:49:52;4.88;;;1.10;;
8857;SDS011;4465;50.904;4.696;2022-11-24T04:52:21;5.22;;;1.30;;
8857;SDS011;4465;50.904;4.696;2022-11-24T04:54:48;8.85;;;1.42;;
8857;SDS011;4465;50.904;4.696;2022-11-24T04:57:15;8.98;;;1.27;;
8857;SDS011;4465;50.904;4.696;2022-11-24T04:59:42;6.63;;;1.10;;
8857;SDS011;4465;50.904;4.696;2022-11-24T05:02:09;6.88;;;1.77;;
8857;SDS011;4465;50.904;4.696;2022-11-24T05:04:35;8.18;;;1.58;;
8857;SDS011;4465;50.904;4.696;2022-11-24T05:07:01;6.32;;;1.00;;
8857;SDS011;4465;50.904;4.696;2022-11-24T05:09:30;4.70;;;1.13;;
8857;SDS011;4465;50.904;4.696;2022-11-24T05:11:56;7.53;;;1.77;;
8857;SDS011;4465;50.904;4.696;2022-11-24T05:14:22;9.30;;;1.20;;
8857;SDS011;4465;50.904;4.696;2022-11-24T05:16:50;10.88;;;1.48;;
8857;SDS011;4465;50.904;4.696;2022-11-24T05:19:16;6.85;;;1.40;;
8857;SDS011;4465;50.904;4.696;2022-11-24T05:21:42;5.72;;;1.35;;
8857;SDS011;4465;50.904;4.696;2022-11-24T05:24:09;3.10;;;0.90;;
8857;SDS011;4465;50.904;4.696;2022-11-24T05:26:35;3.75;;;0.93;;
8857;SDS011;4465;50.904;4.696;2022-11-24T05:29:01;6.78;;;1.48;;
8857;SDS011;4465;50.904;4.696;2022-11-24T05:31:29;4.97;;;1.00;;
8857;SDS011;4465;50.904;4.696;2022-11-24T05:33:58;4.70;;;0.70;;
8857;SDS011;4465;50.904;4.696;2022-11-24T05:36:24;6.72;;;1.05;;
8857;SDS011;4465;50.904;4.696;2022-11-24T05:39:08;7.20;;;1.00;;
8857;SDS011;4465;50.904;4.696;2022-11-24T05:41:40;4.75;;;1.10;;
8857;SDS011;4465;50.904;4.696;2022-11-24T05:44:08;6.32;;;0.80;;
8857;SDS011;4465;50.904;4.696;2022-11-24T05:46:34;4.80;;;1.30;;
8857;SDS011;4465;50.904;4.696;2022-11-24T05:49:00;6.95;;;1.10;;
8857;SDS011;4465;50.904;4.696;2022-11-24T05:51:27;8.02;;;1.95;;
8857;SDS011;4465;50.904;4.696;2022-11-24T05:53:53;5.05;;;1.30;;
8857;SDS011;4465;50.904;4.696;2022-11-24T05:56:19;9.70;;;1.50;;
8857;SDS011;4465;50.904;4.696;2022-11-24T05:58:45;9.05;;;2.20;;
8857;SDS011;4465;50.904;4.696;2022-11-24T06:01:11;9.60;;;1.40;;
8857;SDS011;4465;50.904;4.696;2022-11-24T06:03:37;9.25;;;1.42;;
8857;SDS011;4465;50.904;4.696;2022-11-24T06:06:03;10.55;;;1.75;;
8857;SDS011;4465;50.904;4.696;2022-11-24T06:08:30;12.32;;;1.52;;
8857;SDS011;4465;50.904;4.696;2022-11-24T06:10:59;12.07;;;2.63;;
8857;SDS011;4465;50.904;4.696;2022-11-24T06:13:41;11.82;;;2.03;;
8857;SDS011;4465;50.904;4.696;2022-11-24T06:16:08;7.95;;;2.35;;
8857;SDS011;4465;50.904;4.696;2022-11-24T06:18:35;14.88;;;2.20;;
8857;SDS011;4465;50.904;4.696;2022-11-24T06:21:03;11.85;;;1.65;;
8857;SDS011;4465;50.904;4.696;2022-11-24T06:23:30;14.48;;;2.30;;
8857;SDS011;4465;50.904;4.696;2022-11-24T06:25:57;19.83;;;3.08;;
8857;SDS011;4465;50.904;4.696;2022-11-24T06:30:50;14.27;;;3.15;;
8857;SDS011;4465;50.904;4.696;2022-11-24T06:33:16;14.00;;;2.70;;
8857;SDS011;4465;50.904;4.696;2022-11-24T06:35:42;13.82;;;2.30;;
8857;SDS011;4465;50.904;4.696;2022-11-24T06:38:09;13.37;;;2.47;;
8857;SDS011;4465;50.904;4.696;2022-11-24T06:40:35;24.50;;;2.92;;
8857;SDS011;4465;50.904;4.696;2022-11-24T06:43:01;20.65;;;2.53;;
8857;SDS011;4465;50.904;4.696;2022-11-24T06:45:27;20.10;;;3.63;;
8857;SDS011;4465;50.904;4.696;2022-11-24T06:47:56;20.42;;;2.83;;
8857;SDS011;4465;50.904;4.696;2022-11-24T06:50:22;16.67;;;2.90;;
8857;SDS011;4465;50.904;4.696;2022-11-24T06:52:48;12.88;;;2.45;;
8857;SDS011;4465;50.904;4.696;2022-11-24T06:55:14;19.83;;;2.55;;
8857;SDS011;4465;50.904;4.696;2022-11-24T06:57:40;14.43;;;2.15;;
8857;SDS011;4465;50.904;4.696;2022-11-24T07:00:11;16.08;;;2.75;;
8857;SDS011;4465;50.904;4.696;2022-11-24T07:02:40;11.57;;;2.20;;
8857;SDS011;4465;50.904;4.696;2022-11-24T07:05:06;16.98;;;2.83;;
8857;SDS011;4465;50.904;4.696;2022-11-24T07:07:32;16.75;;;2.58;;
8857;SDS011;4465;50.904;4.696;2022-11-24T07:09:58;11.43;;;2.28;;
8857;SDS011;4465;50.904;4.696;2022-11-24T07:12:24;19.15;;;2.72;;
8857;SDS011;4465;50.904;4.696;2022-11-24T07:14:50;13.70;;;2.95;;
8857;SDS011;4465;50.904;4.696;2022-11-24T07:17:21;13.95;;;2.50;;
8857;SDS011;4465;50.904;4.696;2022-11-24T07:19:48;15.55;;;2.72;;
8857;SDS011;4465;50.904;4.696;2022-11-24T07:22:16;17.75;;;3.03;;
8857;SDS011;4465;50.904;4.696;2022-11-24T07:24:43;14.77;;;2.22;;
8857;SDS011;4465;50.904;4.696;2022-11-24T07:27:09;18.10;;;2.78;;
8857;SDS011;4465;50.904;4.696;2022-11-24T07:29:35;17.23;;;2.25;;
8857;SDS011;4465;50.904;4.696;2022-11-24T07:32:02;18.33;;;2.47;;
8857;SDS011;4465;50.904;4.696;2022-11-24T07:34:28;16.83;;;3.15;;
8857;SDS011;4465;50.904;4.696;2022-11-24T07:36:55;7.38;;;2.08;;
8857;SDS011;4465;50.904;4.696;2022-11-24T07:39:21;18.00;;;3.03;;
8857;SDS011;4465;50.904;4.696;2022-11-24T07:41:52;16.77;;;3.22;;
8857;SDS011;4465;50.904;4.696;2022-11-24T07:44:18;15.93;;;2.95;;
8857;SDS011;4465;50.904;4.696;2022-11-24T07:46:44;16.75;;;2.20;;
8857;SDS011;4465;50.904;4.696;2022-11-24T07:49:11;12.30;;;2.00;;
8857;SDS011;4465;50.904;4.696;2022-11-24T07:51:37;12.52;;;2.22;;
8857;SDS011;4465;50.904;4.696;2022-11-24T07:54:03;8.77;;;1.83;;
8857;SDS011;4465;50.904;4.696;2022-11-24T07:56:31;14.50;;;2.67;;
8857;SDS011;4465;50.904;4.696;2022-11-24T07:58:57;15.20;;;2.65;;
8857;SDS011;4465;50.904;4.696;2022-11-24T08:01:23;14.93;;;3.08;;
8857;SDS011;4465;50.904;4.696;2022-11-24T08:03:52;11.82;;;2.00;;
8857;SDS011;4465;50.904;4.696;2022-11-24T08:06:18;13.07;;;1.80;;
8857;SDS011;4465;50.904;4.696;2022-11-24T08:08:45;11.30;;;2.22;;
8857;SDS011;4465;50.904;4.696;2022-11-24T08:11:12;14.75;;;2.08;;
8857;SDS011;4465;50.904;4.696;2022-11-24T08:13:43;13.02;;;1.80;;
8857;SDS011;4465;50.904;4.696;2022-11-24T08:16:10;14.40;;;2.15;;
8857;SDS011;4465;50.904;4.696;2022-11-24T08:18:39;16.27;;;2.17;;
8857;SDS011;4465;50.904;4.696;2022-11-24T08:21:05;9.63;;;1.85;;
8857;SDS011;4465;50.904;4.696;2022-11-24T08:23:33;8.85;;;1.90;;
8857;SDS011;4465;50.904;4.696;2022-11-24T08:26:05;14.68;;;2.42;;
8857;SDS011;4465;50.904;4.696;2022-11-24T08:28:33;8.27;;;2.13;;
8857;SDS011;4465;50.904;4.696;2022-11-24T08:31:01;14.13;;;1.95;;
8857;SDS011;4465;50.904;4.696;2022-11-24T08:36:09;9.75;;;2.10;;
8857;SDS011;4465;50.904;4.696;2022-11-24T08:38:39;9.88;;;1.73;;
8857;SDS011;4465;50.904;4.696;2022-11-24T08:41:06;18.85;;;2.10;;
8857;SDS011;4465;50.904;4.696;2022-11-24T08:43:35;24.67;;;2.70;;
8857;SDS011;4465;50.904;4.696;2022-11-24T08:46:02;9.02;;;2.20;;
8857;SDS011;4465;50.904;4.696;2022-11-24T08:48:33;13.27;;;3.05;;
8857;SDS011;4465;50.904;4.696;2022-11-24T08:51:05;12.70;;;1.93;;
8857;SDS011;4465;50.904;4.696;2022-11-24T08:53:33;14.77;;;2.90;;
8857;SDS011;4465;50.904;4.696;2022-11-24T08:56:03;12.15;;;2.40;;
8857;SDS011;4465;50.904;4.696;2022-11-24T08:58:32;14.20;;;2.35;;
8857;SDS011;4465;50.904;4.696;2022-11-24T09:01:05;15.00;;;2.40;;
8857;SDS011;4465;50.904;4.696;2022-11-24T09:03:36;15.50;;;2.08;;
8857;SDS011;4465;50.904;4.696;2022-11-24T09:06:03;14.60;;;3.35;;
8857;SDS011;4465;50.904;4.696;2022-11-24T09:08:30;24.35;;;4.38;;
8857;SDS011;4465;50.904;4.696;2022-11-24T09:11:00;18.30;;;2.38;;
8857;SDS011;4465;50.904;4.696;2022-11-24T09:13:30;15.60;;;2.20;;
8857;SDS011;4465;50.904;4.696;2022-11-24T09:16:07;12.10;;;2.40;;
8857;SDS011;4465;50.904;4.696;2022-11-24T09:18:43;16.63;;;2.75;;
8857;SDS011;4465;50.904;4.696;2022-11-24T09:21:14;13.05;;;2.40;;
8857;SDS011;4465;50.904;4.696;2022-11-24T09:23:42;13.48;;;2.38;;
8857;SDS011;4465;50.904;4.696;2022-11-24T09:28:38;22.75;;;2.58;;
8857;SDS011;4465;50.904;4.696;2022-11-24T09:31:05;12.88;;;2.08;;
8857;SDS011;4465;50.904;4.696;2022-11-24T09:33:33;13.00;;;2.45;;
8857;SDS011;4465;50.904;4.696;2022-11-24T09:36:02;18.88;;;3.33;;
8857;SDS011;4465;50.904;4.696;2022-11-24T09:38:28;19.17;;;2.37;;
8857;SDS011;4465;50.904;4.696;2022-11-24T09:40:54;13.27;;;2.15;;
8857;SDS011;4465;50.904;4.696;2022-11-24T09:43:24;15.32;;;2.00;;
8857;SDS011;4465;50.904;4.696;2022-11-24T09:46:21;16.77;;;2.70;;
8857;SDS011;4465;50.904;4.696;2022-11-24T09:48:53;12.60;;;2.30;;
8857;SDS011;4465;50.904;4.696;2022-11-24T09:51:23;16.30;;;3.60;;
8857;SDS011;4465;50.904;4.696;2022-11-24T09:53:54;18.85;;;3.03;;
8857;SDS011;4465;50.904;4.696;2022-11-24T09:56:27;15.90;;;2.50;;
8857;SDS011;4465;50.904;4.696;2022-11-24T09:59:09;16.35;;;2.90;;
8857;SDS011;4465;50.904;4.696;2022-11-24T10:01:43;14.35;;;2.22;;
8857;SDS011;4465;50.904;4.696;2022-11-24T10:04:13;17.38;;;2.90;;
8857;SDS011;4465;50.904;4.696;2022-11-24T10:07:18;12.27;;;2.90;;
8857;SDS011;4465;50.904;4.696;2022-11-24T10:12:59;14.02;;;2.83;;
8857;SDS011;4465;50.904;4.696;2022-11-24T10:16:31;13.38;;;2.50;;
8857;SDS011;4465;50.904;4.696;2022-11-24T10:18:41;10.68;;;2.60;;
8857;SDS011;4465;50.904;4.696;2022-11-24T10:21:41;18.25;;;3.33;;
8857;SDS011;4465;50.904;4.696;2022-11-24T10:24:41;15.10;;;2.42;;
8857;SDS011;4465;50.904;4.696;2022-11-24T10:27:15;13.00;;;2.22;;
8857;SDS011;4465;50.904;4.696;2022-11-24T10:29:50;17.85;;;2.60;;
8857;SDS011;4465;50.904;4.696;2022-11-24T10:32:24;14.50;;;2.55;;
8857;SDS011;4465;50.904;4.696;2022-11-24T10:34:58;11.65;;;2.47;;
8857;SDS011;4465;50.904;4.696;2022-11-24T10:40:02;11.63;;;2.40;;
8857;SDS011;4465;50.904;4.696;2022-11-24T10:42:34;16.15;;;2.65;;
8857;SDS011;4465;50.904;4.696;2022-11-24T10:47:40;11.80;;;2.05;;
8857;SDS011;4465;50.904;4.696;2022-11-24T10:53:24;16.02;;;2.75;;
8857;SDS011;4465;50.904;4.696;2022-11-24T10:55:59;16.00;;;2.88;;
8857;SDS011;4465;50.904;4.696;2022-11-24T10:58:31;13.55;;;2.15;;
8857;SDS011;4465;50.904;4.696;2022-11-24T11:01:00;15.55;;;2.08;;
8857;SDS011;4465;50.904;4.696;2022-11-24T11:03:49;14.25;;;2.40;;
8857;SDS011;4465;50.904;4.696;2022-11-24T11:06:21;16.85;;;2.50;;
8857;SDS011;4465;50.904;4.696;2022-11-24T11:08:52;14.43;;;3.03;;
8857;SDS011;4465;50.904;4.696;2022-11-24T11:11:38;15.10;;;2.55;;
8857;SDS011;4465;50.904;4.696;2022-11-24T11:14:09;19.98;;;3.20;;
8857;SDS011;4465;50.904;4.696;2022-11-24T11:24:43;16.75;;;2.45;;
8857;SDS011;4465;50.904;4.696;2022-11-24T11:27:25;15.70;;;2.42;;
8857;SDS011;4465;50.904;4.696;2022-11-24T11:29:52;17.98;;;2.72;;
8857;SDS011;4465;50.904;4.696;2022-11-24T11:34:49;14.60;;;2.72;;
8857;SDS011;4465;50.904;4.696;2022-11-24T11:37:17;10.75;;;2.78;;
8857;SDS011;4465;50.904;4.696;2022-11-24T11:44:54;17.48;;;2.90;;
8857;SDS011;4465;50.904;4.696;2022-11-24T11:47:32;11.65;;;2.72;;
8857;SDS011;4465;50.904;4.696;2022-11-24T11:50:14;14.90;;;2.70;;
8857;SDS011;4465;50.904;4.696;2022-11-24T11:58:22;20.75;;;2.95;;
8857;SDS011;4465;50.904;4.696;2022-11-24T12:03:49;19.75;;;2.72;;
8857;SDS011;4465;50.904;4.696;2022-11-24T12:11:42;11.25;;;2.63;;
8857;SDS011;4465;50.904;4.696;2022-11-24T12:14:23;15.98;;;3.28;;
8857;SDS011;4465;50.904;4.696;2022-11-24T12:22:45;16.95;;;2.78;;
8857;SDS011;4465;50.904;4.696;2022-11-24T12:24:55;12.90;;;2.42;;
8857;SDS011;4465;50.904;4.696;2022-11-24T12:30:15;21.10;;;2.83;;
8857;SDS011;4465;50.904;4.696;2022-11-24T12:35:47;13.27;;;2.50;;
8857;SDS011;4465;50.904;4.696;2022-11-24T12:41:16;17.40;;;2.95;;
8857;SDS011;4465;50.904;4.696;2022-11-24T12:47:08;19.83;;;2.90;;
8857;SDS011;4465;50.904;4.696;2022-11-24T12:52:32;17.30;;;3.03;;
8857;SDS011;4465;50.904;4.696;2022-11-24T12:55:03;20.60;;;2.97;;
8857;SDS011;4465;50.904;4.696;2022-11-24T12:57:32;13.07;;;2.45;;
8857;SDS011;4465;50.904;4.696;2022-11-24T13:00:05;24.65;;;3.10;;
8857;SDS011;4465;50.904;4.696;2022-11-24T13:02:59;18.90;;;2.92;;
8857;SDS011;4465;50.904;4.696;2022-11-24T13:08:24;15.60;;;2.80;;
8857;SDS011;4465;50.904;4.696;2022-11-24T13:10:52;17.70;;;2.55;;
8857;SDS011;4465;50.904;4.696;2022-11-24T13:13:21;18.42;;;3.05;;
8857;SDS011;4465;50.904;4.696;2022-11-24T13:26:27;16.55;;;2.47;;
8857;SDS011;4465;50.904;4.696;2022-11-24T13:29:03;20.15;;;2.60;;
8857;SDS011;4465;50.904;4.696;2022-11-24T13:31:49;17.05;;;3.35;;
8857;SDS011;4465;50.904;4.696;2022-11-24T13:37:15;17.55;;;2.80;;
8857;SDS011;4465;50.904;4.696;2022-11-24T13:39:49;18.35;;;3.03;;
8857;SDS011;4465;50.904;4.696;2022-11-24T13:42:17;20.13;;;4.05;;
8857;SDS011;4465;50.904;4.696;2022-11-24T13:44:44;21.60;;;3.78;;
8857;SDS011;4465;50.904;4.696;2022-11-24T13:50:06;25.10;;;3.67;;
8857;SDS011;4465;50.904;4.696;2022-11-24T13:57:40;18.63;;;2.80;;
8857;SDS011;4465;50.904;4.696;2022-11-24T14:00:54;21.17;;;3.13;;
8857;SDS011;4465;50.904;4.696;2022-11-24T14:05:50;15.73;;;3.20;;
8857;SDS011;4465;50.904;4.696;2022-11-24T14:08:18;20.48;;;2.95;;
8857;SDS011;4465;50.904;4.696;2022-11-24T14:10:48;17.50;;;4.05;;
8857;SDS011;4465;50.904;4.696;2022-11-24T14:18:45;15.57;;;2.78;;
8857;SDS011;4465;50.904;4.696;2022-11-24T14:24:00;18.80;;;3.38;;
8857;SDS011;4465;50.904;4.696;2022-11-24T14:26:34;16.73;;;3.17;;
8857;SDS011;4465;50.904;4.696;2022-11-24T14:29:03;29.20;;;5.53;;
8857;SDS011;4465;50.904;4.696;2022-11-24T14:31:36;16.70;;;3.75;;
8857;SDS011;4465;50.904;4.696;2022-11-24T14:34:12;22.77;;;3.10;;
8857;SDS011;4465;50.904;4.696;2022-11-24T14:36:40;21.17;;;3.45;;
8857;SDS011;4465;50.904;4.696;2022-11-24T14:39:10;18.25;;;3.25;;
8857;SDS011;4465;50.904;4.696;2022-11-24T14:44:21;25.77;;;3.63;;
8857;SDS011;4465;50.904;4.696;2022-11-24T14:47:00;22.05;;;4.60;;
8857;SDS011;4465;50.904;4.696;2022-11-24T14:49:28;23.52;;;4.38;;
8857;SDS011;4465;50.904;4.696;2022-11-24T14:51:56;25.88;;;4.00;;
8857;SDS011;4465;50.904;4.696;2022-11-24T14:54:26;26.20;;;4.32;;
8857;SDS011;4465;50.904;4.696;2022-11-24T14:57:00;20.58;;;3.92;;
8857;SDS011;4465;50.904;4.696;2022-11-24T14:59:32;16.50;;;3.47;;
8857;SDS011;4465;50.904;4.696;2022-11-24T15:02:00;19.48;;;3.42;;
8857;SDS011;4465;50.904;4.696;2022-11-24T15:04:27;34.03;;;3.30;;
8857;SDS011;4465;50.904;4.696;2022-11-24T15:09:54;20.67;;;4.00;;
8857;SDS011;4465;50.904;4.696;2022-11-24T15:14:52;25.70;;;3.47;;
8857;SDS011;4465;50.904;4.696;2022-11-24T15:17:24;16.02;;;3.35;;
8857;SDS011;4465;50.904;4.696;2022-11-24T15:20:06;22.88;;;4.03;;
8857;SDS011;4465;50.904;4.696;2022-11-24T15:22:47;17.95;;;3.53;;
8857;SDS011;4465;50.904;4.696;2022-11-24T15:25:34;14.70;;;3.17;;
8857;SDS011;4465;50.904;4.696;2022-11-24T15:28:04;18.40;;;3.42;;
8857;SDS011;4465;50.904;4.696;2022-11-24T15:30:33;21.35;;;4.15;;
8857;SDS011;4465;50.904;4.696;2022-11-24T15:33:01;21.50;;;3.40;;
8857;SDS011;4465;50.904;4.696;2022-11-24T15:35:30;24.30;;;3.58;;
8857;SDS011;4465;50.904;4.696;2022-11-24T15:37:57;23.00;;;4.75;;
8857;SDS011;4465;50.904;4.696;2022-11-24T15:40:23;12.63;;;2.88;;
8857;SDS011;4465;50.904;4.696;2022-11-24T15:42:50;24.30;;;3.80;;
8857;SDS011;4465;50.904;4.696;2022-11-24T15:45:22;20.35;;;3.20;;
8857;SDS011;4465;50.904;4.696;2022-11-24T15:47:50;22.00;;;3.17;;
8857;SDS011;4465;50.904;4.696;2022-11-24T15:50:17;11.30;;;2.80;;
8857;SDS011;4465;50.904;4.696;2022-11-24T15:52:43;21.13;;;3.13;;
8857;SDS011;4465;50.904;4.696;2022-11-24T15:55:17;22.33;;;3.13;;
8857;SDS011;4465;50.904;4.696;2022-11-24T15:57:45;13.57;;;2.75;;
8857;SDS011;4465;50.904;4.696;2022-11-24T16:00:12;20.47;;;3.73;;
8857;SDS011;4465;50.904;4.696;2022-11-24T16:02:43;15.70;;;2.65;;
8857;SDS011;4465;50.904;4.696;2022-11-24T16:05:09;17.08;;;3.17;;
8857;SDS011;4465;50.904;4.696;2022-11-24T16:07:36;17.83;;;4.40;;
8857;SDS011;4465;50.904;4.696;2022-11-24T16:10:11;22.00;;;4.13;;
8857;SDS011;4465;50.904;4.696;2022-11-24T16:13:00;20.92;;;3.38;;
8857;SDS011;4465;50.904;4.696;2022-11-24T16:15:28;18.38;;;4.07;;
8857;SDS011;4465;50.904;4.696;2022-11-24T16:17:55;19.15;;;3.75;;
8857;SDS011;4465;50.904;4.696;2022-11-24T16:20:21;23.35;;;3.38;;
8857;SDS011;4465;50.904;4.696;2022-11-24T16:22:52;20.25;;;3.42;;
8857;SDS011;4465;50.904;4.696;2022-11-24T16:25:25;18.80;;;3.75;;
8857;SDS011;4465;50.904;4.696;2022-11-24T16:27:51;26.27;;;4.03;;
8857;SDS011;4465;50.904;4.696;2022-11-24T16:30:19;21.65;;;3.80;;
8857;SDS011;4465;50.904;4.696;2022-11-24T16:32:46;19.25;;;3.67;;
8857;SDS011;4465;50.904;4.696;2022-11-24T16:35:12;15.63;;;3.17;;
8857;SDS011;4465;50.904;4.696;2022-11-24T16:37:38;20.65;;;3.58;;
8857;SDS011;4465;50.904;4.696;2022-11-24T16:40:05;18.92;;;3.92;;
8857;SDS011;4465;50.904;4.696;2022-11-24T16:42:31;28.15;;;4.68;;
8857;SDS011;4465;50.904;4.696;2022-11-24T16:44:59;15.43;;;3.25;;
8857;SDS011;4465;50.904;4.696;2022-11-24T16:47:25;17.67;;;3.17;;
8857;SDS011;4465;50.904;4.696;2022-11-24T16:49:51;23.58;;;4.30;;
8857;SDS011;4465;50.904;4.696;2022-11-24T16:52:18;20.10;;;3.38;;
8857;SDS011;4465;50.904;4.696;2022-11-24T16:54:44;15.25;;;2.90;;
8857;SDS011;4465;50.904;4.696;2022-11-24T16:57:12;22.23;;;4.88;;
8857;SDS011;4465;50.904;4.696;2022-11-24T16:59:39;16.75;;;2.72;;
8857;SDS011;4465;50.904;4.696;2022-11-24T17:02:05;16.23;;;3.58;;
8857;SDS011;4465;50.904;4.696;2022-11-24T17:04:31;15.07;;;2.83;;
8857;SDS011;4465;50.904;4.696;2022-11-24T17:06:58;22.70;;;3.03;;
8857;SDS011;4465;50.904;4.696;2022-11-24T17:09:24;19.30;;;3.22;;
8857;SDS011;4465;50.904;4.696;2022-11-24T17:11:50;22.70;;;3.63;;
8857;SDS011;4465;50.904;4.696;2022-11-24T17:14:16;16.67;;;3.70;;
8857;SDS011;4465;50.904;4.696;2022-11-24T17:16:45;17.02;;;2.88;;
8857;SDS011;4465;50.904;4.696;2022-11-24T17:19:14;25.38;;;4.10;;
8857;SDS011;4465;50.904;4.696;2022-11-24T17:21:40;22.92;;;3.55;;